sensor_id;sensor_type;location;lat;lon;timestamp;P1;durP1;ratioP1;P2;durP2;ratioP2
10461;SDS011;5278;42.656;23.374;2022-10-19T00:02:25;10.57;;;4.60;;
10461;SDS011;5278;42.656;23.374;2022-10-19T00:04:52;6.43;;;3.93;;
10461;SDS011;5278;42.656;23.374;2022-10-19T00:07:18;6.47;;;4.57;;
10461;SDS011;5278;42.656;23.374;2022-10-19T00:09:45;5.80;;;4.20;;
10461;SDS011;5278;42.656;23.374;2022-10-19T00:12:13;7.13;;;4.17;;
10461;SDS011;5278;42.656;23.374;2022-10-19T00:14:41;6.10;;;4.07;;
10461;SDS011;5278;42.656;23.374;2022-10-19T00:17:08;8.33;;;5.10;;
10461;SDS011;5278;42.656;23.374;2022-10-19T00:19:35;7.67;;;4.80;;
10461;SDS011;5278;42.656;23.374;2022-10-19T00:22:02;5.47;;;4.17;;
10461;SDS011;5278;42.656;23.374;2022-10-19T00:24:29;7.73;;;5.03;;
10461;SDS011;5278;42.656;23.374;2022-10-19T00:26:56;8.23;;;4.60;;
10461;SDS011;5278;42.656;23.374;2022-10-19T00:29:23;5.57;;;4.17;;
10461;SDS011;5278;42.656;23.374;2022-10-19T00:31:52;6.50;;;4.50;;
10461;SDS011;5278;42.656;23.374;2022-10-19T00:34:19;6.27;;;4.87;;
10461;SDS011;5278;42.656;23.374;2022-10-19T00:36:46;5.40;;;4.70;;
10461;SDS011;5278;42.656;23.374;2022-10-19T00:39:13;6.13;;;4.30;;
10461;SDS011;5278;42.656;23.374;2022-10-19T00:41:42;5.90;;;4.43;;
10461;SDS011;5278;42.656;23.374;2022-10-19T00:47:12;6.03;;;4.43;;
10461;SDS011;5278;42.656;23.374;2022-10-19T00:49:41;6.90;;;4.83;;
10461;SDS011;5278;42.656;23.374;2022-10-19T00:52:11;6.30;;;4.60;;
10461;SDS011;5278;42.656;23.374;2022-10-19T00:54:41;7.33;;;4.70;;
10461;SDS011;5278;42.656;23.374;2022-10-19T00:57:09;8.10;;;5.03;;
10461;SDS011;5278;42.656;23.374;2022-10-19T00:59:38;9.53;;;4.87;;
10461;SDS011;5278;42.656;23.374;2022-10-19T01:02:06;7.50;;;4.70;;
10461;SDS011;5278;42.656;23.374;2022-10-19T01:04:35;9.00;;;5.03;;
10461;SDS011;5278;42.656;23.374;2022-10-19T01:07:07;7.80;;;5.30;;
10461;SDS011;5278;42.656;23.374;2022-10-19T01:09:35;7.03;;;5.63;;
10461;SDS011;5278;42.656;23.374;2022-10-19T01:12:03;7.93;;;5.67;;
10461;SDS011;5278;42.656;23.374;2022-10-19T01:14:38;5.87;;;4.83;;
10461;SDS011;5278;42.656;23.374;2022-10-19T01:17:15;6.40;;;4.40;;
10461;SDS011;5278;42.656;23.374;2022-10-19T01:20:04;7.93;;;5.17;;
10461;SDS011;5278;42.656;23.374;2022-10-19T01:22:54;5.73;;;4.47;;
10461;SDS011;5278;42.656;23.374;2022-10-19T01:25:34;10.33;;;4.93;;
10461;SDS011;5278;42.656;23.374;2022-10-19T01:28:18;7.10;;;5.17;;
10461;SDS011;5278;42.656;23.374;2022-10-19T01:31:00;5.43;;;4.67;;
10461;SDS011;5278;42.656;23.374;2022-10-19T01:33:32;9.27;;;4.57;;
10461;SDS011;5278;42.656;23.374;2022-10-19T01:36:06;5.93;;;4.73;;
10461;SDS011;5278;42.656;23.374;2022-10-19T01:38:46;7.63;;;4.87;;
10461;SDS011;5278;42.656;23.374;2022-10-19T01:41:19;8.27;;;5.53;;
10461;SDS011;5278;42.656;23.374;2022-10-19T01:43:54;7.43;;;5.10;;
10461;SDS011;5278;42.656;23.374;2022-10-19T01:46:27;7.97;;;5.17;;
10461;SDS011;5278;42.656;23.374;2022-10-19T01:49:03;9.73;;;5.43;;
10461;SDS011;5278;42.656;23.374;2022-10-19T01:51:36;6.70;;;4.40;;
10461;SDS011;5278;42.656;23.374;2022-10-19T01:54:08;7.63;;;4.90;;
10461;SDS011;5278;42.656;23.374;2022-10-19T01:56:39;7.20;;;4.77;;
10461;SDS011;5278;42.656;23.374;2022-10-19T01:59:08;7.20;;;5.00;;
10461;SDS011;5278;42.656;23.374;2022-10-19T02:01:39;8.93;;;5.13;;
10461;SDS011;5278;42.656;23.374;2022-10-19T02:04:10;7.37;;;5.10;;
10461;SDS011;5278;42.656;23.374;2022-10-19T02:06:38;5.33;;;4.77;;
10461;SDS011;5278;42.656;23.374;2022-10-19T02:09:06;10.00;;;4.73;;
10461;SDS011;5278;42.656;23.374;2022-10-19T02:11:34;5.93;;;4.73;;
10461;SDS011;5278;42.656;23.374;2022-10-19T02:14:04;8.20;;;4.40;;
10461;SDS011;5278;42.656;23.374;2022-10-19T02:16:37;6.10;;;3.90;;
10461;SDS011;5278;42.656;23.374;2022-10-19T02:19:11;4.30;;;3.63;;
10461;SDS011;5278;42.656;23.374;2022-10-19T02:21:40;4.93;;;4.40;;
10461;SDS011;5278;42.656;23.374;2022-10-19T02:24:08;4.80;;;4.37;;
10461;SDS011;5278;42.656;23.374;2022-10-19T02:26:34;4.13;;;3.73;;
10461;SDS011;5278;42.656;23.374;2022-10-19T02:29:01;5.77;;;4.17;;
10461;SDS011;5278;42.656;23.374;2022-10-19T02:31:29;6.40;;;4.00;;
10461;SDS011;5278;42.656;23.374;2022-10-19T02:33:57;6.53;;;3.63;;
10461;SDS011;5278;42.656;23.374;2022-10-19T02:36:24;5.67;;;4.20;;
10461;SDS011;5278;42.656;23.374;2022-10-19T02:38:51;5.97;;;3.63;;
10461;SDS011;5278;42.656;23.374;2022-10-19T02:41:19;5.47;;;4.20;;
10461;SDS011;5278;42.656;23.374;2022-10-19T02:43:50;4.47;;;3.80;;
10461;SDS011;5278;42.656;23.374;2022-10-19T02:46:24;5.73;;;4.30;;
10461;SDS011;5278;42.656;23.374;2022-10-19T02:48:56;6.70;;;3.93;;
10461;SDS011;5278;42.656;23.374;2022-10-19T02:51:28;4.40;;;3.73;;
10461;SDS011;5278;42.656;23.374;2022-10-19T02:53:56;6.90;;;4.07;;
10461;SDS011;5278;42.656;23.374;2022-10-19T02:56:23;6.33;;;4.30;;
10461;SDS011;5278;42.656;23.374;2022-10-19T02:58:50;7.70;;;4.00;;
10461;SDS011;5278;42.656;23.374;2022-10-19T03:01:17;7.63;;;4.70;;
10461;SDS011;5278;42.656;23.374;2022-10-19T03:03:44;5.97;;;4.30;;
10461;SDS011;5278;42.656;23.374;2022-10-19T03:06:13;5.93;;;4.60;;
10461;SDS011;5278;42.656;23.374;2022-10-19T03:08:40;9.00;;;4.30;;
10461;SDS011;5278;42.656;23.374;2022-10-19T03:11:06;6.53;;;3.90;;
10461;SDS011;5278;42.656;23.374;2022-10-19T03:13:33;5.87;;;4.57;;
10461;SDS011;5278;42.656;23.374;2022-10-19T03:16:06;5.97;;;3.93;;
10461;SDS011;5278;42.656;23.374;2022-10-19T03:18:34;5.57;;;4.03;;
10461;SDS011;5278;42.656;23.374;2022-10-19T03:21:01;5.83;;;4.00;;
10461;SDS011;5278;42.656;23.374;2022-10-19T03:23:31;7.83;;;3.70;;
10461;SDS011;5278;42.656;23.374;2022-10-19T03:25:58;5.20;;;4.07;;
10461;SDS011;5278;42.656;23.374;2022-10-19T03:28:24;4.60;;;4.10;;
10461;SDS011;5278;42.656;23.374;2022-10-19T03:30:52;5.30;;;4.10;;
10461;SDS011;5278;42.656;23.374;2022-10-19T03:33:19;7.30;;;4.03;;
10461;SDS011;5278;42.656;23.374;2022-10-19T03:35:46;6.33;;;3.93;;
10461;SDS011;5278;42.656;23.374;2022-10-19T03:38:13;6.20;;;4.60;;
10461;SDS011;5278;42.656;23.374;2022-10-19T03:40:41;7.30;;;4.17;;
10461;SDS011;5278;42.656;23.374;2022-10-19T03:43:08;6.20;;;4.40;;
10461;SDS011;5278;42.656;23.374;2022-10-19T03:45:34;8.80;;;5.13;;
10461;SDS011;5278;42.656;23.374;2022-10-19T03:48:01;9.43;;;4.80;;
10461;SDS011;5278;42.656;23.374;2022-10-19T03:50:28;4.90;;;4.40;;
10461;SDS011;5278;42.656;23.374;2022-10-19T03:52:55;7.70;;;4.20;;
10461;SDS011;5278;42.656;23.374;2022-10-19T03:55:22;6.13;;;4.13;;
10461;SDS011;5278;42.656;23.374;2022-10-19T03:57:52;10.47;;;4.37;;
10461;SDS011;5278;42.656;23.374;2022-10-19T04:00:19;5.17;;;3.93;;
10461;SDS011;5278;42.656;23.374;2022-10-19T04:02:45;5.63;;;4.47;;
10461;SDS011;5278;42.656;23.374;2022-10-19T04:05:12;6.10;;;4.70;;
10461;SDS011;5278;42.656;23.374;2022-10-19T04:07:40;8.73;;;4.43;;
10461;SDS011;5278;42.656;23.374;2022-10-19T04:10:07;6.27;;;4.40;;
10461;SDS011;5278;42.656;23.374;2022-10-19T04:12:34;6.17;;;4.70;;
10461;SDS011;5278;42.656;23.374;2022-10-19T04:15:02;11.30;;;7.60;;
10461;SDS011;5278;42.656;23.374;2022-10-19T04:17:29;7.57;;;5.03;;
10461;SDS011;5278;42.656;23.374;2022-10-19T04:19:56;7.57;;;4.70;;
10461;SDS011;5278;42.656;23.374;2022-10-19T04:22:23;10.87;;;4.77;;
10461;SDS011;5278;42.656;23.374;2022-10-19T04:24:50;8.33;;;4.27;;
10461;SDS011;5278;42.656;23.374;2022-10-19T04:27:18;8.43;;;4.80;;
10461;SDS011;5278;42.656;23.374;2022-10-19T04:29:45;7.53;;;5.23;;
10461;SDS011;5278;42.656;23.374;2022-10-19T04:32:13;7.83;;;4.93;;
10461;SDS011;5278;42.656;23.374;2022-10-19T04:34:41;6.20;;;5.00;;
10461;SDS011;5278;42.656;23.374;2022-10-19T04:37:08;9.90;;;5.10;;
10461;SDS011;5278;42.656;23.374;2022-10-19T04:39:34;21.33;;;5.57;;
10461;SDS011;5278;42.656;23.374;2022-10-19T04:42:05;11.43;;;5.23;;
10461;SDS011;5278;42.656;23.374;2022-10-19T04:44:31;10.07;;;5.47;;
10461;SDS011;5278;42.656;23.374;2022-10-19T04:46:58;9.33;;;5.73;;
10461;SDS011;5278;42.656;23.374;2022-10-19T04:49:27;10.70;;;5.67;;
10461;SDS011;5278;42.656;23.374;2022-10-19T04:51:54;11.03;;;6.17;;
10461;SDS011;5278;42.656;23.374;2022-10-19T04:54:20;8.67;;;5.90;;
10461;SDS011;5278;42.656;23.374;2022-10-19T04:56:47;10.43;;;5.47;;
10461;SDS011;5278;42.656;23.374;2022-10-19T04:59:14;16.57;;;5.70;;
10461;SDS011;5278;42.656;23.374;2022-10-19T05:01:41;10.70;;;5.53;;
10461;SDS011;5278;42.656;23.374;2022-10-19T05:04:08;8.70;;;5.93;;
10461;SDS011;5278;42.656;23.374;2022-10-19T05:06:37;7.03;;;4.30;;
10461;SDS011;5278;42.656;23.374;2022-10-19T05:09:04;6.80;;;4.37;;
10461;SDS011;5278;42.656;23.374;2022-10-19T05:11:31;10.23;;;5.30;;
10461;SDS011;5278;42.656;23.374;2022-10-19T05:13:58;6.97;;;5.03;;
10461;SDS011;5278;42.656;23.374;2022-10-19T05:16:26;8.90;;;5.57;;
10461;SDS011;5278;42.656;23.374;2022-10-19T05:18:54;11.80;;;6.63;;
10461;SDS011;5278;42.656;23.374;2022-10-19T05:21:23;11.20;;;6.20;;
10461;SDS011;5278;42.656;23.374;2022-10-19T05:23:53;11.70;;;7.00;;
10461;SDS011;5278;42.656;23.374;2022-10-19T05:26:22;11.53;;;6.50;;
10461;SDS011;5278;42.656;23.374;2022-10-19T05:28:50;9.37;;;6.03;;
10461;SDS011;5278;42.656;23.374;2022-10-19T05:31:20;20.63;;;7.00;;
10461;SDS011;5278;42.656;23.374;2022-10-19T05:33:48;19.00;;;7.20;;
10461;SDS011;5278;42.656;23.374;2022-10-19T05:36:16;17.80;;;7.10;;
10461;SDS011;5278;42.656;23.374;2022-10-19T05:38:45;12.73;;;7.50;;
10461;SDS011;5278;42.656;23.374;2022-10-19T05:41:15;12.50;;;6.83;;
10461;SDS011;5278;42.656;23.374;2022-10-19T05:43:42;10.33;;;7.20;;
10461;SDS011;5278;42.656;23.374;2022-10-19T05:46:10;11.60;;;6.77;;
10461;SDS011;5278;42.656;23.374;2022-10-19T05:48:38;14.57;;;8.37;;
10461;SDS011;5278;42.656;23.374;2022-10-19T05:51:06;14.70;;;8.73;;
10461;SDS011;5278;42.656;23.374;2022-10-19T05:53:35;16.93;;;9.43;;
10461;SDS011;5278;42.656;23.374;2022-10-19T05:56:03;15.70;;;8.70;;
10461;SDS011;5278;42.656;23.374;2022-10-19T05:58:33;16.13;;;8.73;;
10461;SDS011;5278;42.656;23.374;2022-10-19T06:01:01;12.87;;;8.17;;
10461;SDS011;5278;42.656;23.374;2022-10-19T06:03:28;14.17;;;7.03;;
10461;SDS011;5278;42.656;23.374;2022-10-19T06:05:56;10.43;;;7.10;;
10461;SDS011;5278;42.656;23.374;2022-10-19T06:08:24;13.77;;;7.30;;
10461;SDS011;5278;42.656;23.374;2022-10-19T06:10:51;12.27;;;6.67;;
10461;SDS011;5278;42.656;23.374;2022-10-19T06:13:18;19.03;;;7.33;;
10461;SDS011;5278;42.656;23.374;2022-10-19T06:15:50;8.77;;;6.10;;
10461;SDS011;5278;42.656;23.374;2022-10-19T06:18:17;11.33;;;6.40;;
10461;SDS011;5278;42.656;23.374;2022-10-19T06:20:49;15.37;;;6.70;;
10461;SDS011;5278;42.656;23.374;2022-10-19T06:23:17;13.80;;;8.03;;
10461;SDS011;5278;42.656;23.374;2022-10-19T06:25:44;10.73;;;6.77;;
10461;SDS011;5278;42.656;23.374;2022-10-19T06:28:10;9.90;;;7.07;;
10461;SDS011;5278;42.656;23.374;2022-10-19T06:30:38;11.97;;;6.13;;
10461;SDS011;5278;42.656;23.374;2022-10-19T06:33:07;13.67;;;5.93;;
10461;SDS011;5278;42.656;23.374;2022-10-19T06:35:34;6.73;;;5.47;;
10461;SDS011;5278;42.656;23.374;2022-10-19T06:38:01;10.97;;;6.43;;
10461;SDS011;5278;42.656;23.374;2022-10-19T06:40:28;11.60;;;6.47;;
10461;SDS011;5278;42.656;23.374;2022-10-19T06:42:56;9.77;;;7.77;;
10461;SDS011;5278;42.656;23.374;2022-10-19T06:45:22;17.83;;;10.63;;
10461;SDS011;5278;42.656;23.374;2022-10-19T06:47:49;15.50;;;10.20;;
10461;SDS011;5278;42.656;23.374;2022-10-19T06:50:18;12.97;;;8.30;;
10461;SDS011;5278;42.656;23.374;2022-10-19T06:52:45;10.97;;;8.57;;
10461;SDS011;5278;42.656;23.374;2022-10-19T06:55:12;11.13;;;8.77;;
10461;SDS011;5278;42.656;23.374;2022-10-19T06:57:42;15.47;;;9.83;;
10461;SDS011;5278;42.656;23.374;2022-10-19T07:00:09;14.07;;;10.30;;
10461;SDS011;5278;42.656;23.374;2022-10-19T07:02:39;16.57;;;9.93;;
10461;SDS011;5278;42.656;23.374;2022-10-19T07:05:06;12.77;;;9.50;;
10461;SDS011;5278;42.656;23.374;2022-10-19T07:07:35;11.03;;;9.10;;
10461;SDS011;5278;42.656;23.374;2022-10-19T07:10:02;11.77;;;9.10;;
10461;SDS011;5278;42.656;23.374;2022-10-19T07:12:29;16.70;;;10.00;;
10461;SDS011;5278;42.656;23.374;2022-10-19T07:14:55;13.90;;;9.80;;
10461;SDS011;5278;42.656;23.374;2022-10-19T07:17:22;14.77;;;9.90;;
10461;SDS011;5278;42.656;23.374;2022-10-19T07:19:49;14.73;;;9.77;;
10461;SDS011;5278;42.656;23.374;2022-10-19T07:22:16;15.77;;;10.70;;
10461;SDS011;5278;42.656;23.374;2022-10-19T07:24:44;13.47;;;10.00;;
10461;SDS011;5278;42.656;23.374;2022-10-19T07:27:11;13.10;;;9.00;;
10461;SDS011;5278;42.656;23.374;2022-10-19T07:29:38;10.60;;;8.47;;
10461;SDS011;5278;42.656;23.374;2022-10-19T07:32:05;15.20;;;9.77;;
10461;SDS011;5278;42.656;23.374;2022-10-19T07:34:31;14.13;;;9.73;;
10461;SDS011;5278;42.656;23.374;2022-10-19T07:36:58;10.93;;;8.63;;
10461;SDS011;5278;42.656;23.374;2022-10-19T07:39:25;14.37;;;9.23;;
10461;SDS011;5278;42.656;23.374;2022-10-19T07:41:54;12.83;;;8.53;;
10461;SDS011;5278;42.656;23.374;2022-10-19T07:44:21;14.23;;;9.10;;
10461;SDS011;5278;42.656;23.374;2022-10-19T07:46:47;12.20;;;9.80;;
10461;SDS011;5278;42.656;23.374;2022-10-19T07:49:15;14.63;;;8.63;;
10461;SDS011;5278;42.656;23.374;2022-10-19T07:51:43;10.70;;;9.50;;
10461;SDS011;5278;42.656;23.374;2022-10-19T07:54:10;11.65;;;9.07;;
10461;SDS011;5278;42.656;23.374;2022-10-19T07:56:38;12.68;;;9.57;;
10461;SDS011;5278;42.656;23.374;2022-10-19T07:59:06;14.68;;;10.63;;
10461;SDS011;5278;42.656;23.374;2022-10-19T08:01:37;15.65;;;11.73;;
10461;SDS011;5278;42.656;23.374;2022-10-19T08:04:06;15.52;;;11.00;;
10461;SDS011;5278;42.656;23.374;2022-10-19T08:06:33;16.63;;;10.98;;
10461;SDS011;5278;42.656;23.374;2022-10-19T08:09:01;12.52;;;11.25;;
10461;SDS011;5278;42.656;23.374;2022-10-19T08:11:30;13.15;;;11.77;;
10461;SDS011;5278;42.656;23.374;2022-10-19T08:13:58;15.30;;;12.18;;
10461;SDS011;5278;42.656;23.374;2022-10-19T08:16:29;15.63;;;11.05;;
10461;SDS011;5278;42.656;23.374;2022-10-19T08:18:58;14.68;;;12.90;;
10461;SDS011;5278;42.656;23.374;2022-10-19T08:21:26;15.60;;;10.57;;
10461;SDS011;5278;42.656;23.374;2022-10-19T08:23:55;15.63;;;10.80;;
10461;SDS011;5278;42.656;23.374;2022-10-19T08:26:22;18.50;;;10.75;;
10461;SDS011;5278;42.656;23.374;2022-10-19T08:28:49;22.42;;;11.70;;
10461;SDS011;5278;42.656;23.374;2022-10-19T08:31:20;17.75;;;12.55;;
10461;SDS011;5278;42.656;23.374;2022-10-19T08:33:50;30.08;;;11.35;;
10461;SDS011;5278;42.656;23.374;2022-10-19T08:36:17;16.23;;;11.70;;
10461;SDS011;5278;42.656;23.374;2022-10-19T08:38:45;23.55;;;11.27;;
10461;SDS011;5278;42.656;23.374;2022-10-19T08:41:19;22.42;;;11.95;;
10461;SDS011;5278;42.656;23.374;2022-10-19T08:46:58;14.00;;;11.20;;
10461;SDS011;5278;42.656;23.374;2022-10-19T08:49:34;22.73;;;17.90;;
10461;SDS011;5278;42.656;23.374;2022-10-19T08:52:03;18.70;;;12.55;;
10461;SDS011;5278;42.656;23.374;2022-10-19T08:54:39;20.98;;;11.98;;
10461;SDS011;5278;42.656;23.374;2022-10-19T08:57:13;20.65;;;10.48;;
10461;SDS011;5278;42.656;23.374;2022-10-19T08:59:47;20.33;;;12.68;;
10461;SDS011;5278;42.656;23.374;2022-10-19T09:02:26;16.85;;;9.38;;
10461;SDS011;5278;42.656;23.374;2022-10-19T09:05:08;12.27;;;8.98;;
10461;SDS011;5278;42.656;23.374;2022-10-19T09:07:41;16.15;;;8.20;;
10461;SDS011;5278;42.656;23.374;2022-10-19T09:10:15;11.93;;;7.88;;
10461;SDS011;5278;42.656;23.374;2022-10-19T09:12:46;9.55;;;6.93;;
10461;SDS011;5278;42.656;23.374;2022-10-19T09:15:21;19.25;;;7.07;;
10461;SDS011;5278;42.656;23.374;2022-10-19T09:17:52;17.42;;;5.57;;
10461;SDS011;5278;42.656;23.374;2022-10-19T09:20:21;5.88;;;4.95;;
10461;SDS011;5278;42.656;23.374;2022-10-19T09:22:54;7.55;;;4.43;;
10461;SDS011;5278;42.656;23.374;2022-10-19T09:25:27;7.18;;;4.43;;
10461;SDS011;5278;42.656;23.374;2022-10-19T09:27:58;12.23;;;4.88;;
10461;SDS011;5278;42.656;23.374;2022-10-19T09:30:31;11.63;;;4.72;;
10461;SDS011;5278;42.656;23.374;2022-10-19T09:33:03;6.43;;;4.68;;
10461;SDS011;5278;42.656;23.374;2022-10-19T09:35:36;8.25;;;4.40;;
10461;SDS011;5278;42.656;23.374;2022-10-19T09:38:08;8.32;;;4.05;;
10461;SDS011;5278;42.656;23.374;2022-10-19T09:40:40;6.00;;;3.83;;
10461;SDS011;5278;42.656;23.374;2022-10-19T09:43:08;8.25;;;4.60;;
10461;SDS011;5278;42.656;23.374;2022-10-19T09:45:45;6.43;;;4.40;;
10461;SDS011;5278;42.656;23.374;2022-10-19T09:48:17;7.00;;;4.00;;
10461;SDS011;5278;42.656;23.374;2022-10-19T09:50:54;6.90;;;3.75;;
10461;SDS011;5278;42.656;23.374;2022-10-19T09:53:25;5.32;;;3.85;;
10461;SDS011;5278;42.656;23.374;2022-10-19T09:55:57;6.13;;;4.05;;
10461;SDS011;5278;42.656;23.374;2022-10-19T09:58:28;5.50;;;4.20;;
10461;SDS011;5278;42.656;23.374;2022-10-19T10:00:56;5.55;;;3.90;;
10461;SDS011;5278;42.656;23.374;2022-10-19T10:03:24;9.20;;;4.00;;
10461;SDS011;5278;42.656;23.374;2022-10-19T10:06:00;9.55;;;3.97;;
10461;SDS011;5278;42.656;23.374;2022-10-19T10:08:29;6.95;;;4.07;;
10461;SDS011;5278;42.656;23.374;2022-10-19T10:11:03;4.65;;;3.75;;
10461;SDS011;5278;42.656;23.374;2022-10-19T10:13:34;4.47;;;3.55;;
10461;SDS011;5278;42.656;23.374;2022-10-19T10:16:05;4.57;;;3.63;;
10461;SDS011;5278;42.656;23.374;2022-10-19T10:18:35;5.80;;;3.67;;
10461;SDS011;5278;42.656;23.374;2022-10-19T10:21:13;5.25;;;3.53;;
10461;SDS011;5278;42.656;23.374;2022-10-19T10:23:49;7.88;;;3.55;;
10461;SDS011;5278;42.656;23.374;2022-10-19T10:26:25;4.45;;;3.45;;
10461;SDS011;5278;42.656;23.374;2022-10-19T10:28:52;4.63;;;3.60;;
10461;SDS011;5278;42.656;23.374;2022-10-19T10:31:21;5.78;;;3.60;;
10461;SDS011;5278;42.656;23.374;2022-10-19T10:33:54;5.05;;;3.60;;
10461;SDS011;5278;42.656;23.374;2022-10-19T10:36:28;5.30;;;3.78;;
10461;SDS011;5278;42.656;23.374;2022-10-19T10:38:58;5.10;;;3.67;;
10461;SDS011;5278;42.656;23.374;2022-10-19T10:41:30;6.18;;;3.58;;
10461;SDS011;5278;42.656;23.374;2022-10-19T10:44:05;4.00;;;3.70;;
10461;SDS011;5278;42.656;23.374;2022-10-19T10:46:41;5.32;;;4.57;;
10461;SDS011;5278;42.656;23.374;2022-10-19T10:49:19;4.78;;;3.85;;
10461;SDS011;5278;42.656;23.374;2022-10-19T10:51:51;6.85;;;3.40;;
10461;SDS011;5278;42.656;23.374;2022-10-19T10:54:21;5.10;;;3.83;;
10461;SDS011;5278;42.656;23.374;2022-10-19T10:56:58;5.80;;;4.13;;
10461;SDS011;5278;42.656;23.374;2022-10-19T10:59:32;8.23;;;4.10;;
10461;SDS011;5278;42.656;23.374;2022-10-19T11:02:11;6.35;;;3.92;;
10461;SDS011;5278;42.656;23.374;2022-10-19T11:04:44;6.53;;;4.10;;
10461;SDS011;5278;42.656;23.374;2022-10-19T11:07:18;4.22;;;3.83;;
10461;SDS011;5278;42.656;23.374;2022-10-19T11:09:49;6.57;;;3.80;;
10461;SDS011;5278;42.656;23.374;2022-10-19T11:12:27;4.00;;;3.60;;
10461;SDS011;5278;42.656;23.374;2022-10-19T11:15:03;6.25;;;3.95;;
10461;SDS011;5278;42.656;23.374;2022-10-19T11:17:38;4.30;;;3.80;;
10461;SDS011;5278;42.656;23.374;2022-10-19T11:20:14;6.30;;;4.15;;
10461;SDS011;5278;42.656;23.374;2022-10-19T11:22:44;5.82;;;3.97;;
10461;SDS011;5278;42.656;23.374;2022-10-19T11:25:21;4.35;;;3.78;;
10461;SDS011;5278;42.656;23.374;2022-10-19T11:27:59;5.88;;;3.60;;
10461;SDS011;5278;42.656;23.374;2022-10-19T11:30:38;5.50;;;3.67;;
10461;SDS011;5278;42.656;23.374;2022-10-19T11:33:13;7.50;;;3.50;;
10461;SDS011;5278;42.656;23.374;2022-10-19T11:35:50;10.75;;;3.67;;
10461;SDS011;5278;42.656;23.374;2022-10-19T11:38:24;5.20;;;3.35;;
10461;SDS011;5278;42.656;23.374;2022-10-19T11:41:01;5.22;;;3.00;;
10461;SDS011;5278;42.656;23.374;2022-10-19T11:43:36;3.83;;;3.10;;
10461;SDS011;5278;42.656;23.374;2022-10-19T11:46:11;8.18;;;3.00;;
10461;SDS011;5278;42.656;23.374;2022-10-19T11:48:51;5.68;;;3.38;;
10461;SDS011;5278;42.656;23.374;2022-10-19T11:51:31;6.28;;;3.70;;
10461;SDS011;5278;42.656;23.374;2022-10-19T11:54:09;4.85;;;3.65;;
10461;SDS011;5278;42.656;23.374;2022-10-19T11:56:48;5.95;;;3.67;;
10461;SDS011;5278;42.656;23.374;2022-10-19T11:59:22;3.80;;;3.40;;
10461;SDS011;5278;42.656;23.374;2022-10-19T12:01:59;5.07;;;3.37;;
10461;SDS011;5278;42.656;23.374;2022-10-19T12:04:44;6.13;;;3.00;;
10461;SDS011;5278;42.656;23.374;2022-10-19T12:07:35;4.20;;;3.10;;
10461;SDS011;5278;42.656;23.374;2022-10-19T12:10:24;5.93;;;3.40;;
10461;SDS011;5278;42.656;23.374;2022-10-19T12:13:00;7.53;;;3.57;;
10461;SDS011;5278;42.656;23.374;2022-10-19T12:15:29;6.27;;;3.37;;
10461;SDS011;5278;42.656;23.374;2022-10-19T12:18:00;5.20;;;3.97;;
10461;SDS011;5278;42.656;23.374;2022-10-19T12:20:34;6.83;;;4.07;;
10461;SDS011;5278;42.656;23.374;2022-10-19T12:23:09;4.13;;;3.00;;
10461;SDS011;5278;42.656;23.374;2022-10-19T12:25:47;4.00;;;3.60;;
10461;SDS011;5278;42.656;23.374;2022-10-19T12:28:17;6.53;;;3.57;;
10461;SDS011;5278;42.656;23.374;2022-10-19T12:30:48;6.80;;;3.30;;
10461;SDS011;5278;42.656;23.374;2022-10-19T12:33:19;4.50;;;3.00;;
10461;SDS011;5278;42.656;23.374;2022-10-19T12:36:05;4.93;;;3.13;;
10461;SDS011;5278;42.656;23.374;2022-10-19T12:38:43;3.33;;;3.03;;
10461;SDS011;5278;42.656;23.374;2022-10-19T12:41:21;5.60;;;2.93;;
10461;SDS011;5278;42.656;23.374;2022-10-19T12:43:55;5.33;;;3.57;;
10461;SDS011;5278;42.656;23.374;2022-10-19T12:46:33;5.73;;;3.67;;
10461;SDS011;5278;42.656;23.374;2022-10-19T12:52:02;6.23;;;4.07;;
10461;SDS011;5278;42.656;23.374;2022-10-19T12:54:32;6.60;;;4.00;;
10461;SDS011;5278;42.656;23.374;2022-10-19T12:57:17;5.83;;;3.53;;
10461;SDS011;5278;42.656;23.374;2022-10-19T12:59:56;12.13;;;10.27;;
10461;SDS011;5278;42.656;23.374;2022-10-19T13:02:26;4.87;;;4.07;;
10461;SDS011;5278;42.656;23.374;2022-10-19T13:04:56;6.07;;;3.10;;
10461;SDS011;5278;42.656;23.374;2022-10-19T13:07:24;6.03;;;3.63;;
10461;SDS011;5278;42.656;23.374;2022-10-19T13:09:58;5.43;;;3.23;;
10461;SDS011;5278;42.656;23.374;2022-10-19T13:12:38;7.20;;;3.50;;
10461;SDS011;5278;42.656;23.374;2022-10-19T13:21:44;5.63;;;3.47;;
10461;SDS011;5278;42.656;23.374;2022-10-19T13:27:22;7.13;;;3.43;;
10461;SDS011;5278;42.656;23.374;2022-10-19T13:29:53;5.90;;;3.47;;
10461;SDS011;5278;42.656;23.374;2022-10-19T13:32:35;6.33;;;3.83;;
10461;SDS011;5278;42.656;23.374;2022-10-19T13:35:20;6.60;;;3.60;;
10461;SDS011;5278;42.656;23.374;2022-10-19T13:38:18;8.37;;;3.43;;
10461;SDS011;5278;42.656;23.374;2022-10-19T13:41:09;4.97;;;3.63;;
10461;SDS011;5278;42.656;23.374;2022-10-19T13:43:40;8.07;;;3.63;;
10461;SDS011;5278;42.656;23.374;2022-10-19T13:46:20;8.13;;;4.10;;
10461;SDS011;5278;42.656;23.374;2022-10-19T13:55:20;4.73;;;3.87;;
10461;SDS011;5278;42.656;23.374;2022-10-19T13:58:03;6.40;;;3.40;;
10461;SDS011;5278;42.656;23.374;2022-10-19T14:01:00;5.53;;;3.50;;
10461;SDS011;5278;42.656;23.374;2022-10-19T14:03:52;7.40;;;4.07;;
10461;SDS011;5278;42.656;23.374;2022-10-19T14:06:37;5.43;;;4.37;;
10461;SDS011;5278;42.656;23.374;2022-10-19T14:09:14;6.73;;;4.03;;
10461;SDS011;5278;42.656;23.374;2022-10-19T14:11:51;8.27;;;4.07;;
10461;SDS011;5278;42.656;23.374;2022-10-19T14:14:28;7.10;;;4.10;;
10461;SDS011;5278;42.656;23.374;2022-10-19T14:16:56;6.83;;;3.30;;
10461;SDS011;5278;42.656;23.374;2022-10-19T14:19:27;5.00;;;3.63;;
10461;SDS011;5278;42.656;23.374;2022-10-19T14:21:55;5.63;;;3.90;;
10461;SDS011;5278;42.656;23.374;2022-10-19T14:24:26;7.23;;;4.17;;
10461;SDS011;5278;42.656;23.374;2022-10-19T14:26:55;8.53;;;4.27;;
10461;SDS011;5278;42.656;23.374;2022-10-19T14:29:24;8.67;;;4.57;;
10461;SDS011;5278;42.656;23.374;2022-10-19T14:31:51;6.20;;;4.40;;
10461;SDS011;5278;42.656;23.374;2022-10-19T14:34:18;5.77;;;4.00;;
10461;SDS011;5278;42.656;23.374;2022-10-19T14:36:47;5.20;;;3.67;;
10461;SDS011;5278;42.656;23.374;2022-10-19T14:39:21;4.20;;;3.63;;
10461;SDS011;5278;42.656;23.374;2022-10-19T14:41:52;5.47;;;3.90;;
10461;SDS011;5278;42.656;23.374;2022-10-19T14:44:27;4.33;;;3.77;;
10461;SDS011;5278;42.656;23.374;2022-10-19T14:47:01;6.37;;;4.27;;
10461;SDS011;5278;42.656;23.374;2022-10-19T14:49:40;6.77;;;4.23;;
10461;SDS011;5278;42.656;23.374;2022-10-19T14:52:09;10.67;;;4.40;;
10461;SDS011;5278;42.656;23.374;2022-10-19T14:54:41;4.70;;;4.30;;
10461;SDS011;5278;42.656;23.374;2022-10-19T14:57:14;6.67;;;4.07;;
10461;SDS011;5278;42.656;23.374;2022-10-19T14:59:44;6.63;;;4.60;;
10461;SDS011;5278;42.656;23.374;2022-10-19T15:02:15;7.20;;;4.13;;
10461;SDS011;5278;42.656;23.374;2022-10-19T15:04:46;8.87;;;4.57;;
10461;SDS011;5278;42.656;23.374;2022-10-19T15:07:16;8.20;;;4.10;;
10461;SDS011;5278;42.656;23.374;2022-10-19T15:09:50;8.87;;;4.63;;
10461;SDS011;5278;42.656;23.374;2022-10-19T15:12:23;6.67;;;4.30;;
10461;SDS011;5278;42.656;23.374;2022-10-19T15:14:53;10.80;;;4.97;;
10461;SDS011;5278;42.656;23.374;2022-10-19T15:17:23;6.70;;;4.33;;
10461;SDS011;5278;42.656;23.374;2022-10-19T15:19:52;8.87;;;4.33;;
10461;SDS011;5278;42.656;23.374;2022-10-19T15:22:35;6.93;;;4.60;;
10461;SDS011;5278;42.656;23.374;2022-10-19T15:25:24;7.07;;;4.77;;
10461;SDS011;5278;42.656;23.374;2022-10-19T15:30:44;6.57;;;4.80;;
10461;SDS011;5278;42.656;23.374;2022-10-19T15:33:22;8.23;;;4.53;;
10461;SDS011;5278;42.656;23.374;2022-10-19T15:35:49;6.53;;;5.33;;